Time;durP1;ratioP1;P1;durP2;ratioP2;P2;SDS_P1;SDS_P2;PMS_P1;PMS_P2;Temp;Humidity;BMP_temperature;BMP_pressure;BME280_temperature;BME280_humidity;BME280_pressure;Samples;Min_cycle;Max_cycle;Signal;HPM_P1;HPM_P2
2022/10/20 00:01:29;;;;;;;11.50;6.97;;;;;;;11.77;61.88;96659.72;5117051;28;20542;-62
2022/10/20 00:03:57;;;;;;;8.52;6.80;;;;;;;11.86;61.91;96656.72;5117150;28;20122;-62
2022/10/20 00:06:26;;;;;;;10.80;7.20;;;;;;;11.94;61.29;96650.31;5117028;28;20101;-69
2022/10/20 00:08:56;;;;;;;8.90;6.95;;;;;;;12.03;61.10;96635.97;5117053;28;20040;-67
2022/10/20 00:11:26;;;;;;;11.38;7.88;;;;;;;12.15;60.88;96640.72;5116818;28;20044;-65
2022/10/20 00:13:56;;;;;;;11.13;6.55;;;;;;;12.18;60.58;96632.72;5116978;28;20051;-61
2022/10/20 00:16:25;;;;;;;10.27;7.53;;;;;;;12.25;60.50;96638.56;5116858;27;20043;-68
2022/10/20 00:18:53;;;;;;;11.93;6.82;;;;;;;12.30;60.61;96628.72;5116398;28;20090;-62
2022/10/20 00:21:23;;;;;;;8.20;6.60;;;;;;;12.33;60.47;96622.50;5116519;28;20050;-65
2022/10/20 00:23:50;;;;;;;10.27;7.20;;;;;;;12.44;60.19;96615.00;5116718;27;20504;-66
2022/10/20 00:26:19;;;;;;;10.35;7.13;;;;;;;12.55;59.65;96624.19;5116460;27;20051;-67
2022/10/20 00:28:49;;;;;;;10.63;7.65;;;;;;;12.62;59.43;96629.06;5116685;28;20051;-65
2022/10/20 00:31:17;;;;;;;9.30;7.43;;;;;;;12.68;59.35;96637.59;5116314;28;20054;-61
2022/10/20 00:33:45;;;;;;;9.88;7.15;;;;;;;12.58;59.21;96635.38;5116436;28;20040;-63
2022/10/20 00:36:14;;;;;;;8.73;7.22;;;;;;;12.55;59.04;96634.69;5116329;28;20120;-66
2022/10/20 00:38:41;;;;;;;10.40;7.18;;;;;;;12.54;59.33;96630.31;5116373;28;20051;-65
2022/10/20 00:41:11;;;;;;;9.35;7.03;;;;;;;12.41;59.68;96635.28;5116140;27;20476;-67
2022/10/20 00:43:46;;;;;;;8.80;6.45;;;;;;;12.19;58.88;96631.81;5116273;28;20044;-68
2022/10/20 00:46:17;;;;;;;6.60;5.40;;;;;;;11.81;57.52;96629.88;5116172;28;20105;-65
2022/10/20 00:48:49;;;;;;;8.68;4.32;;;;;;;11.55;56.73;96634.41;5116049;28;20558;-63
2022/10/20 00:51:20;;;;;;;6.57;4.85;;;;;;;11.27;56.73;96632.91;5115960;28;20054;-66
2022/10/20 00:53:52;;;;;;;9.32;5.78;;;;;;;11.00;57.23;96635.69;5116066;28;20123;-61
2022/10/20 00:56:19;;;;;;;6.50;5.70;;;;;;;10.77;58.62;96632.16;5116066;28;20130;-65
2022/10/20 00:58:47;;;;;;;11.35;6.07;;;;;;;10.65;59.60;96637.88;5115793;28;20100;-65
2022/10/20 01:01:16;;;;;;;10.90;5.80;;;;;;;10.53;59.99;96647.84;5116175;28;20082;-63
2022/10/20 01:03:47;;;;;;;11.30;6.70;;;;;;;10.34;60.60;96648.47;5115684;28;20043;-66
2022/10/20 01:06:15;;;;;;;;;;;;;;;10.23;62.63;96648.00;5116383;28;20043;-62
2022/10/20 01:08:43;;;;;;;10.07;5.90;;;;;;;10.05;63.89;96649.50;5115730;28;19919;-65
2022/10/20 01:11:22;;;;;;;10.50;6.13;;;;;;;9.97;64.21;96654.97;5115661;28;20055;-63
2022/10/20 01:14:01;;;;;;;12.43;7.05;;;;;;;9.90;64.88;96648.25;5115706;28;20056;-59
2022/10/20 01:16:43;;;;;;;9.55;6.80;;;;;;;9.79;66.52;96636.41;5115574;28;20054;-66
2022/10/20 01:19:27;;;;;;;8.30;6.68;;;;;;;9.69;67.70;96635.00;5115198;28;20101;-64
2022/10/20 01:22:11;;;;;;;11.98;7.45;;;;;;;9.61;67.64;96632.66;5115347;28;20051;-66
2022/10/20 01:24:51;;;;;;;9.82;7.25;;;;;;;9.56;67.87;96637.16;5115495;28;20045;-63
2022/10/20 01:27:31;;;;;;;9.30;7.28;;;;;;;9.46;68.71;96645.28;5115343;28;20067;-61
2022/10/20 01:30:08;;;;;;;9.63;6.63;;;;;;;9.35;69.01;96643.03;5115228;28;20048;-66
2022/10/20 01:32:50;;;;;;;12.57;7.25;;;;;;;9.31;69.38;96644.03;5115299;28;20098;-61
2022/10/20 01:35:27;;;;;;;9.82;7.07;;;;;;;9.28;68.94;96641.50;5115085;28;20052;-64
2022/10/20 01:38:03;;;;;;;10.65;6.82;;;;;;;9.19;69.31;96647.00;5115162;28;20143;-63
2022/10/20 01:40:35;;;;;;;10.70;6.97;;;;;;;9.12;69.74;96648.94;5115092;28;20044;-64
2022/10/20 01:43:08;;;;;;;9.02;7.43;;;;;;;9.05;69.96;96647.41;5114972;28;20048;-65
2022/10/20 01:45:39;;;;;;;11.85;7.93;;;;;;;9.00;70.39;96652.78;5114942;28;20105;-64
2022/10/20 01:48:10;;;;;;;9.98;6.93;;;;;;;8.93;70.56;96643.41;5114842;28;20043;-61
2022/10/20 01:50:39;;;;;;;11.05;7.35;;;;;;;8.75;70.87;96645.66;5114969;28;20050;-63
2022/10/20 01:53:06;;;;;;;11.07;8.25;;;;;;;8.72;70.91;96658.81;5113945;28;20548;-64
2022/10/20 01:55:34;;;;;;;9.77;7.05;;;;;;;8.69;70.87;96651.06;5114743;28;20041;-62
2022/10/20 01:58:29;;;;;;;10.25;7.63;;;;;;;8.69;70.59;96656.28;5114650;28;20040;-63
2022/10/20 02:01:01;;;;;;;10.15;7.50;;;;;;;8.62;71.54;96660.81;5073771;27;20069;-64
2022/10/20 02:03:41;;;;;;;8.95;6.47;;;;;;;8.56;71.79;96654.03;5114598;28;20096;-63
2022/10/20 02:06:19;;;;;;;8.90;6.33;;;;;;;8.49;72.28;96660.25;5114541;28;20057;-64
2022/10/20 02:08:49;;;;;;;7.85;7.05;;;;;;;8.41;72.50;96655.28;5114562;28;20047;-62
2022/10/20 02:11:25;;;;;;;11.30;7.93;;;;;;;8.33;72.64;96655.50;5114642;28;20047;-68
2022/10/20 02:13:56;;;;;;;9.95;7.35;;;;;;;8.24;72.43;96655.72;5114378;28;20131;-66
2022/10/20 02:16:28;;;;;;;11.73;7.32;;;;;;;8.17;73.29;96655.06;5114264;28;20595;-62
2022/10/20 02:18:56;;;;;;;12.10;7.20;;;;;;;8.18;73.35;96658.50;5114086;28;20044;-68
2022/10/20 02:21:24;;;;;;;7.50;6.43;;;;;;;8.21;73.26;96658.41;5114572;28;20071;-65
2022/10/20 02:23:54;;;;;;;14.13;7.65;;;;;;;8.16;73.15;96662.91;5114508;28;20047;-67
2022/10/20 02:26:25;;;;;;;11.98;7.43;;;;;;;8.10;73.74;96669.13;5114099;28;20055;-63
2022/10/20 02:28:59;;;;;;;10.68;7.60;;;;;;;8.07;73.60;96677.88;5114107;27;20492;-68
2022/10/20 02:31:26;;;;;;;11.60;7.75;;;;;;;8.00;73.50;96684.13;5114117;28;20057;-66
2022/10/20 02:33:56;;;;;;;9.25;6.88;;;;;;;7.94;73.53;96686.88;5114129;28;20138;-63
2022/10/20 02:36:28;;;;;;;11.38;7.10;;;;;;;7.90;73.62;96693.94;5114111;28;20408;-64
2022/10/20 02:38:56;;;;;;;8.98;7.30;;;;;;;7.79;74.01;96704.63;5114161;28;20069;-63
2022/10/20 02:41:23;;;;;;;11.10;7.82;;;;;;;7.75;74.25;96705.59;5114016;28;20178;-65
2022/10/20 02:43:50;;;;;;;12.38;7.60;;;;;;;7.67;74.80;96695.34;5114141;28;20095;-68
2022/10/20 02:46:18;;;;;;;10.63;6.72;;;;;;;7.71;74.47;96707.41;5114102;27;20044;-61
2022/10/20 02:48:46;;;;;;;11.70;7.57;;;;;;;7.76;74.71;96704.69;5113983;28;20473;-66
2022/10/20 02:51:13;;;;;;;14.55;7.68;;;;;;;7.75;74.51;96697.78;5113905;28;20048;-65
2022/10/20 02:53:40;;;;;;;11.85;7.68;;;;;;;7.68;75.51;96696.22;5113638;28;20052;-65
2022/10/20 02:56:08;;;;;;;11.90;8.27;;;;;;;7.74;76.08;96696.06;5113836;28;20043;-64
2022/10/20 02:58:36;;;;;;;10.10;7.35;;;;;;;7.67;75.35;96710.09;5113734;28;20096;-63
2022/10/20 03:01:03;;;;;;;10.75;7.65;;;;;;;7.67;75.75;96703.16;5113662;28;20489;-62
2022/10/20 03:03:32;;;;;;;11.07;7.72;;;;;;;7.63;76.01;96718.88;5113707;28;20047;-66
2022/10/20 03:06:12;;;;;;;9.90;6.95;;;;;;;7.62;75.89;96722.41;5113736;28;20457;-66
2022/10/20 03:08:39;;;;;;;11.68;7.47;;;;;;;7.61;75.53;96724.13;5113756;28;20054;-65
2022/10/20 03:11:07;;;;;;;12.68;8.40;;;;;;;7.55;75.90;96721.66;5113533;28;20413;-64
2022/10/20 03:13:34;;;;;;;13.68;7.55;;;;;;;7.53;75.70;96732.13;5113449;28;20048;-65
2022/10/20 03:16:02;;;;;;;10.80;7.50;;;;;;;7.47;76.34;96721.88;5113648;28;20047;-64
2022/10/20 03:18:29;;;;;;;12.48;7.55;;;;;;;7.45;76.33;96726.22;5113346;28;20087;-59
2022/10/20 03:20:57;;;;;;;10.38;7.22;;;;;;;7.45;76.43;96716.69;5113424;28;20040;-64
2022/10/20 03:23:24;;;;;;;10.15;7.15;;;;;;;7.40;75.63;96722.88;5113543;28;20047;-67
2022/10/20 03:25:51;;;;;;;10.52;6.93;;;;;;;7.38;75.84;96725.53;5113556;28;20044;-65
2022/10/20 03:28:18;;;;;;;10.68;7.93;;;;;;;7.37;75.78;96721.19;5113552;28;20128;-66
2022/10/20 03:30:46;;;;;;;11.23;6.90;;;;;;;7.42;76.00;96721.09;5113495;28;20130;-65
2022/10/20 03:33:13;;;;;;;15.15;7.38;;;;;;;7.45;76.35;96716.69;5113431;28;20083;-65
2022/10/20 03:35:40;;;;;;;9.82;7.03;;;;;;;7.39;76.40;96723.75;5113575;28;20043;-60
2022/10/20 03:38:09;;;;;;;10.68;7.25;;;;;;;7.32;76.94;96721.28;5113402;28;20066;-66
2022/10/20 03:40:36;;;;;;;9.05;7.18;;;;;;;7.30;77.25;96724.81;5113355;28;20044;-67
2022/10/20 03:43:03;;;;;;;10.60;7.15;;;;;;;7.30;76.95;96737.84;5113285;28;20047;-63
2022/10/20 03:45:31;;;;;;;11.07;7.95;;;;;;;7.33;76.82;96743.84;5113208;28;20048;-63
2022/10/20 03:47:58;;;;;;;10.20;7.07;;;;;;;7.38;76.62;96740.28;5113247;28;20451;-62
2022/10/20 03:50:26;;;;;;;9.63;6.68;;;;;;;7.42;76.66;96727.16;5113457;28;20043;-64
2022/10/20 03:52:53;;;;;;;9.70;7.57;;;;;;;7.45;76.47;96731.44;5113363;28;20079;-67
2022/10/20 03:55:21;;;;;;;12.15;7.32;;;;;;;7.46;75.58;96731.41;5113458;28;20047;-62
2022/10/20 03:57:48;;;;;;;10.23;7.43;;;;;;;7.42;76.10;96737.59;5113207;28;20055;-62
2022/10/20 04:00:16;;;;;;;13.10;8.10;;;;;;;7.32;76.64;96747.31;5113123;28;20089;-65
2022/10/20 04:02:45;;;;;;;11.20;7.85;;;;;;;7.26;77.57;96744.00;5113294;28;20131;-62
2022/10/20 04:05:14;;;;;;;10.30;7.40;;;;;;;7.20;77.91;96748.44;5113373;28;20070;-63
2022/10/20 04:07:41;;;;;;;12.15;7.40;;;;;;;7.13;78.62;96749.47;5113137;28;20052;-63
2022/10/20 04:10:09;;;;;;;11.23;7.85;;;;;;;7.13;78.81;96746.03;5113386;28;20495;-65
2022/10/20 04:12:38;;;;;;;12.68;7.75;;;;;;;7.17;78.37;96739.84;5113006;28;20489;-62
2022/10/20 04:15:07;;;;;;;11.10;7.35;;;;;;;7.17;77.87;96734.66;5113008;28;20043;-62
2022/10/20 04:17:35;;;;;;;10.43;7.95;;;;;;;7.13;77.94;96746.84;5115239;28;20501;-63
2022/10/20 04:20:02;;;;;;;11.18;7.80;;;;;;;7.03;78.72;96733.19;5116229;28;20052;-61
2022/10/20 04:22:30;;;;;;;11.70;7.95;;;;;;;7.01;78.63;96741.94;5116786;28;20473;-60
2022/10/20 04:24:57;;;;;;;10.65;7.72;;;;;;;6.90;79.05;96740.41;5116653;28;20040;-63
2022/10/20 04:27:24;;;;;;;17.10;8.23;;;;;;;6.88;78.91;96729.16;5116718;28;20044;-61
2022/10/20 04:29:52;;;;;;;10.27;7.65;;;;;;;6.85;79.27;96733.56;5116555;28;20151;-64
2022/10/20 04:32:20;;;;;;;13.60;8.43;;;;;;;6.75;78.67;96735.50;5116494;28;20051;-65
2022/10/20 04:34:47;;;;;;;11.90;8.25;;;;;;;6.73;79.16;96740.72;5116371;28;20048;-64
2022/10/20 04:37:14;;;;;;;12.10;7.75;;;;;;;6.64;79.08;96736.56;5116418;28;20122;-63
2022/10/20 04:39:41;;;;;;;11.80;8.35;;;;;;;6.61;79.30;96736.63;5116281;28;20048;-63
2022/10/20 04:42:08;;;;;;;18.08;8.70;;;;;;;6.62;79.26;96734.88;5116286;28;20074;-66
2022/10/20 04:44:35;;;;;;;13.30;8.95;;;;;;;6.73;82.03;96743.31;5116288;28;20055;-63
2022/10/20 04:47:04;;;;;;;18.13;10.20;;;;;;;7.14;82.86;96739.91;5116276;28;20048;-66
2022/10/20 04:49:31;;;;;;;16.05;11.18;;;;;;;7.82;82.35;96750.56;5116098;28;20131;-61
2022/10/20 04:51:59;;;;;;;12.80;9.27;;;;;;;8.27;80.29;96751.22;5116227;28;20048;-63
2022/10/20 04:54:27;;;;;;;11.70;9.13;;;;;;;8.82;78.41;96748.94;5115908;28;20047;-65
2022/10/20 04:56:54;;;;;;;13.95;8.50;;;;;;;9.35;75.48;96751.81;5116032;28;20134;-63
2022/10/20 04:59:21;;;;;;;11.85;8.48;;;;;;;9.70;73.65;96751.66;5116191;28;20048;-66
2022/10/20 05:01:48;;;;;;;11.25;7.53;;;;;;;9.98;72.82;96756.84;5115919;28;20047;-65
2022/10/20 05:04:20;;;;;;;11.20;7.90;;;;;;;10.21;71.72;96764.84;5115948;28;20130;-65
2022/10/20 05:06:48;;;;;;;10.93;8.07;;;;;;;10.38;70.70;96773.91;5115819;28;20382;-66
2022/10/20 05:09:16;;;;;;;9.80;8.27;;;;;;;10.52;69.59;96774.31;5115744;27;20086;-68
2022/10/20 05:11:43;;;;;;;9.45;6.90;;;;;;;10.68;68.82;96790.31;5115710;28;20051;-62
2022/10/20 05:14:11;;;;;;;9.85;7.63;;;;;;;10.83;68.06;96793.31;5115710;28;20495;-66
2022/10/20 05:16:38;;;;;;;11.82;8.25;;;;;;;11.04;67.17;96793.44;5115619;28;20125;-63
2022/10/20 05:19:05;;;;;;;9.73;6.85;;;;;;;11.83;65.51;96797.56;5115578;28;20096;-66
2022/10/20 05:21:34;;;;;;;14.30;6.65;;;;;;;12.97;61.55;96792.94;5115627;28;20397;-61
2022/10/20 05:24:04;;;;;;;8.27;6.65;;;;;;;13.85;57.79;96798.66;5115547;28;20058;-67
2022/10/20 05:26:35;;;;;;;8.10;6.43;;;;;;;15.09;54.61;96803.22;5115617;28;20562;-62
2022/10/20 05:29:04;;;;;;;7.53;6.07;;;;;;;16.16;51.03;96805.41;5115529;28;20051;-65
2022/10/20 05:31:32;;;;;;;7.68;5.90;;;;;;;17.09;48.26;96803.63;5115437;28;20415;-66
2022/10/20 05:33:59;;;;;;;8.38;6.13;;;;;;;18.16;45.16;96804.13;5115276;28;20073;-64
2022/10/20 05:36:27;;;;;;;7.15;5.70;;;;;;;19.16;42.19;96804.69;5115241;28;20075;-65
2022/10/20 05:38:56;;;;;;;6.30;5.32;;;;;;;19.68;41.81;96809.94;5115059;28;20122;-63
2022/10/20 05:41:25;;;;;;;6.85;5.70;;;;;;;20.72;39.52;96828.19;5115000;28;20047;-65
2022/10/20 05:43:56;;;;;;;6.05;5.03;;;;;;;21.63;38.01;96837.31;5115093;28;20083;-65
2022/10/20 05:46:24;;;;;;;8.68;4.88;;;;;;;22.52;36.96;96827.66;5114882;28;20047;-63
2022/10/20 05:48:54;;;;;;;6.55;4.90;;;;;;;23.09;35.77;96836.28;5114851;28;20055;-61
2022/10/20 05:51:24;;;;;;;9.80;5.15;;;;;;;23.42;33.81;96843.41;5114904;28;20048;-65
2022/10/20 05:53:52;;;;;;;5.57;4.43;;;;;;;23.98;32.60;96841.22;5114681;28;20054;-67
2022/10/20 05:56:22;;;;;;;7.15;4.30;;;;;;;24.74;32.26;96845.19;5114703;28;20047;-70
2022/10/20 05:58:49;;;;;;;8.30;4.57;;;;;;;25.40;31.18;96866.00;5115079;28;20504;-62
2022/10/20 06:01:22;;;;;;;7.25;4.38;;;;;;;25.37;30.50;96879.66;5114666;28;20051;-62
2022/10/20 06:03:50;;;;;;;4.88;3.97;;;;;;;26.12;29.50;96886.06;5114627;28;20079;-67
2022/10/20 06:06:19;;;;;;;4.63;4.10;;;;;;;26.47;28.29;96887.19;5114631;28;20048;-70
2022/10/20 06:08:47;;;;;;;5.72;4.85;;;;;;;26.59;27.66;96887.81;5114600;28;20127;-70
2022/10/20 06:11:15;;;;;;;5.03;4.38;;;;;;;27.10;27.38;96899.91;5114546;28;20083;-67
2022/10/20 06:13:45;;;;;;;7.55;4.95;;;;;;;27.75;26.36;96905.91;5114403;28;20111;-67
2022/10/20 06:16:13;;;;;;;8.20;4.40;;;;;;;27.48;25.68;96905.06;5114429;28;20048;-63
2022/10/20 06:18:42;;;;;;;5.68;4.50;;;;;;;27.52;26.49;96908.28;5114581;28;20100;-64
2022/10/20 06:21:14;;;;;;;5.25;4.65;;;;;;;28.18;25.68;96906.00;5114548;28;20065;-64
2022/10/20 06:23:41;;;;;;;5.30;4.63;;;;;;;28.82;24.85;96903.84;5114308;28;20481;-62
2022/10/20 06:26:11;;;;;;;5.35;4.60;;;;;;;28.72;25.14;96909.38;5114263;28;20405;-66
2022/10/20 06:28:40;;;;;;;7.55;4.90;;;;;;;29.39;25.20;96913.00;5114306;28;20075;-64
2022/10/20 06:31:14;;;;;;;5.03;4.53;;;;;;;29.09;23.74;96912.66;5114301;28;20551;-66
2022/10/20 06:33:42;;;;;;;6.53;4.47;;;;;;;29.25;23.98;96909.97;5114116;28;20056;-66
2022/10/20 06:36:10;;;;;;;6.30;4.78;;;;;;;29.02;23.90;96907.13;5114112;28;20052;-68
2022/10/20 06:38:38;;;;;;;10.65;4.60;;;;;;;29.14;24.13;96904.94;5114239;28;20052;-63
2022/10/20 06:41:08;;;;;;;6.43;4.75;;;;;;;29.21;23.64;96905.09;5113689;28;20047;-68
2022/10/20 06:43:35;;;;;;;5.80;4.50;;;;;;;29.36;23.77;96900.72;5113952;28;20047;-67
2022/10/20 06:46:04;;;;;;;5.10;4.60;;;;;;;29.22;23.33;96906.75;5113878;28;20054;-66
2022/10/20 06:48:33;;;;;;;6.65;4.20;;;;;;;28.36;24.21;96908.59;5113996;28;20043;-62
2022/10/20 06:51:02;;;;;;;4.82;4.32;;;;;;;28.82;24.00;96910.09;5113797;28;20097;-67
2022/10/20 06:53:31;;;;;;;4.63;3.97;;;;;;;29.87;23.11;96918.53;5113740;28;20052;-67
2022/10/20 06:56:00;;;;;;;7.43;5.35;;;;;;;29.59;23.42;96908.13;5113673;28;20135;-68
2022/10/20 06:58:27;;;;;;;4.65;4.15;;;;;;;29.85;22.97;96899.00;5113752;28;20054;-67
2022/10/20 07:01:02;;;;;;;5.18;4.68;;;;;;;28.86;23.33;96894.44;5113636;28;20044;-64
2022/10/20 07:03:33;;;;;;;5.97;4.55;;;;;;;29.19;23.18;96896.34;5113703;28;20047;-66
2022/10/20 07:06:00;;;;;;;7.55;3.83;;;;;;;29.48;23.16;96905.75;5113745;28;20092;-66
2022/10/20 07:08:29;;;;;;;4.72;4.20;;;;;;;29.42;23.04;96901.91;5113602;28;20082;-67
2022/10/20 07:11:01;;;;;;;5.43;4.38;;;;;;;28.94;23.03;96901.72;5113591;28;20466;-60
2022/10/20 07:13:29;;;;;;;4.13;3.65;;;;;;;28.43;23.62;96900.75;5113612;28;20505;-65
2022/10/20 07:15:59;;;;;;;5.63;4.25;;;;;;;27.54;25.11;96898.22;5113603;28;20040;-66
2022/10/20 07:18:27;;;;;;;4.60;3.80;;;;;;;28.55;24.16;96905.81;5113574;28;20134;-67
2022/10/20 07:20:59;;;;;;;4.40;4.00;;;;;;;28.45;23.90;96903.25;5113382;28;20295;-65
2022/10/20 07:23:27;;;;;;;4.60;3.78;;;;;;;27.88;24.44;96908.19;5113533;28;20097;-63
2022/10/20 07:26:00;;;;;;;10.30;4.57;;;;;;;27.05;24.97;96915.59;5113539;28;20092;-66
2022/10/20 07:28:27;;;;;;;7.07;4.03;;;;;;;27.11;24.88;96915.84;5113467;28;20079;-68
2022/10/20 07:30:54;;;;;;;5.10;4.25;;;;;;;27.02;25.14;96921.31;5113497;28;20132;-64
2022/10/20 07:33:22;;;;;;;5.20;3.83;;;;;;;26.48;26.08;96926.41;5113338;28;20055;-68
2022/10/20 07:35:50;;;;;;;5.32;3.80;;;;;;;25.66;26.72;96918.09;5113497;28;20052;-66
2022/10/20 07:38:18;;;;;;;4.82;3.75;;;;;;;25.24;27.29;96922.78;5113351;28;20044;-64
2022/10/20 07:40:45;;;;;;;7.85;3.90;;;;;;;24.87;27.80;96927.03;5113331;28;20043;-69
2022/10/20 07:43:13;;;;;;;6.03;3.97;;;;;;;24.59;28.44;96926.81;5113355;28;20044;-64
2022/10/20 07:45:40;;;;;;;6.32;3.97;;;;;;;24.42;28.94;96933.66;5113137;28;20444;-60
2022/10/20 07:48:08;;;;;;;5.85;4.05;;;;;;;24.30;28.41;96928.41;5113525;28;20101;-62
2022/10/20 07:50:36;;;;;;;4.85;3.95;;;;;;;24.09;29.06;96923.09;5113140;28;20044;-62
2022/10/20 07:53:05;;;;;;;5.55;4.13;;;;;;;23.86;29.46;96928.63;5116180;28;20055;-67
2022/10/20 07:55:34;;;;;;;8.32;5.00;;;;;;;23.55;29.03;96936.59;5117064;28;20050;-65
2022/10/20 07:58:01;;;;;;;8.52;3.75;;;;;;;22.82;30.53;96938.94;5117096;27;20408;-61
2022/10/20 08:00:32;;;;;;;6.38;3.10;;;;;;;22.55;31.45;96947.34;5117485;27;20075;-63
2022/10/20 08:02:59;;;;;;;;;;;;;;;21.90;31.87;96943.50;5117626;28;20127;-67
2022/10/20 08:05:28;;;;;;;4.53;3.33;;;;;;;21.74;32.97;96953.63;5116893;28;19919;-65
2022/10/20 08:07:55;;;;;;;6.20;4.57;;;;;;;21.29;32.96;96956.06;5116958;28;20051;-65
2022/10/20 08:10:22;;;;;;;5.00;3.95;;;;;;;21.34;33.80;96964.53;5116971;28;20043;-61
2022/10/20 08:12:51;;;;;;;4.65;3.95;;;;;;;21.24;33.03;96958.19;5117002;28;20649;-64
2022/10/20 08:15:18;;;;;;;4.95;3.58;;;;;;;20.91;33.39;96954.44;5116760;27;20052;-61
2022/10/20 08:17:45;;;;;;;5.13;3.88;;;;;;;20.78;33.81;96954.47;5116609;28;20504;-58
2022/10/20 08:20:12;;;;;;;7.25;4.32;;;;;;;20.60;34.14;96954.00;5116573;27;20521;-65
2022/10/20 08:22:39;;;;;;;4.35;3.70;;;;;;;20.55;33.99;96962.28;5116767;28;20139;-63
2022/10/20 08:25:07;;;;;;;6.65;4.07;;;;;;;20.53;34.58;96962.41;5116826;27;20047;-67
2022/10/20 08:27:34;;;;;;;6.40;3.65;;;;;;;20.75;34.84;96967.97;5116848;27;20549;-66
2022/10/20 08:30:03;;;;;;;3.80;3.28;;;;;;;20.78;34.27;96962.44;5116973;28;20040;-62
2022/10/20 08:32:30;;;;;;;8.25;4.13;;;;;;;20.81;34.06;96965.72;5116832;28;20412;-62
2022/10/20 08:34:57;;;;;;;4.28;3.33;;;;;;;20.94;33.73;96981.66;5116559;28;20480;-63
2022/10/20 08:37:25;;;;;;;5.60;4.10;;;;;;;20.73;33.52;96978.72;5116810;28;20435;-59
2022/10/20 08:39:52;;;;;;;4.25;3.45;;;;;;;20.59;34.48;96971.75;5116443;28;20068;-67
2022/10/20 08:42:20;;;;;;;5.47;3.60;;;;;;;20.71;34.33;96976.16;5116370;28;20043;-67
2022/10/20 08:44:48;;;;;;;6.10;4.10;;;;;;;20.74;33.60;96971.59;5116106;28;20043;-65
2022/10/20 08:47:25;;;;;;;4.70;3.90;;;;;;;20.99;33.12;96969.81;5116103;28;20053;-61
2022/10/20 08:49:52;;;;;;;4.78;3.42;;;;;;;21.18;33.47;96971.97;5116218;28;20043;-64
2022/10/20 08:52:23;;;;;;;4.35;3.72;;;;;;;21.13;33.57;96969.63;5116088;28;20100;-65
2022/10/20 08:54:53;;;;;;;3.97;3.58;;;;;;;21.12;33.54;96981.25;5115942;28;20043;-62
2022/10/20 08:57:23;;;;;;;4.93;3.80;;;;;;;21.24;33.35;96975.97;5116240;28;20183;-61
2022/10/20 08:59:53;;;;;;;4.80;3.80;;;;;;;21.12;32.66;96983.03;5115863;28;20079;-63
2022/10/20 09:02:23;;;;;;;4.72;3.40;;;;;;;21.10;32.79;96982.31;5115479;28;20066;-68
2022/10/20 09:04:53;;;;;;;4.93;3.30;;;;;;;21.27;34.21;96986.38;5115884;28;20104;-63
2022/10/20 09:07:27;;;;;;;5.60;3.90;;;;;;;21.36;33.36;96987.50;5115842;28;20387;-62
2022/10/20 09:10:13;;;;;;;7.57;4.03;;;;;;;21.30;33.39;96989.66;5115769;28;20047;-66
2022/10/20 09:12:43;;;;;;;6.20;4.13;;;;;;;21.31;33.03;96988.69;5115736;28;20477;-66
2022/10/20 09:15:12;;;;;;;4.47;3.57;;;;;;;21.36;33.83;96985.69;5115589;28;20051;-63
2022/10/20 09:17:43;;;;;;;5.45;3.33;;;;;;;21.32;33.48;96981.56;5115680;28;20043;-61
2022/10/20 09:20:19;;;;;;;8.23;3.88;;;;;;;21.18;32.64;96991.44;5115351;28;20127;-65
2022/10/20 09:22:47;;;;;;;4.78;3.67;;;;;;;21.09;34.32;96992.09;5115683;28;20183;-68
2022/10/20 09:25:16;;;;;;;5.30;3.75;;;;;;;21.19;33.98;96990.47;5115443;28;20051;-62
2022/10/20 09:27:44;;;;;;;5.95;3.45;;;;;;;21.31;33.21;96991.34;5115498;28;20517;-61
2022/10/20 09:30:18;;;;;;;5.18;3.95;;;;;;;21.29;33.39;96992.44;5115498;28;20082;-62
2022/10/20 09:32:48;;;;;;;7.65;3.92;;;;;;;21.41;33.35;96993.34;5115337;28;20051;-65
2022/10/20 09:35:22;;;;;;;4.13;3.60;;;;;;;21.47;33.12;96984.91;5115307;28;20055;-62
2022/10/20 09:37:55;;;;;;;4.35;3.53;;;;;;;21.28;33.08;96993.41;5115228;28;20079;-63
2022/10/20 09:40:25;;;;;;;5.55;3.75;;;;;;;21.40;33.19;96995.13;5115406;28;20074;-59
2022/10/20 09:42:56;;;;;;;6.45;3.63;;;;;;;21.43;32.30;96997.56;5115181;28;20048;-62
2022/10/20 09:45:27;;;;;;;5.70;3.67;;;;;;;21.33;32.31;96999.22;5115236;28;20411;-64
2022/10/20 09:48:01;;;;;;;5.63;3.92;;;;;;;21.23;32.35;96996.41;5114962;28;20063;-65
2022/10/20 09:50:32;;;;;;;4.63;3.35;;;;;;;21.24;32.70;97000.75;5115055;28;20459;-62
2022/10/20 09:53:00;;;;;;;;;;;;;;;21.28;33.16;96990.75;5115718;28;20059;-64
2022/10/20 09:55:30;;;;;;;3.78;3.28;;;;;;;21.47;33.22;96984.91;5115574;28;20352;-66
2022/10/20 09:58:01;;;;;;;4.80;3.25;;;;;;;21.64;32.26;96986.25;5114716;28;20048;-61
2022/10/20 10:00:31;;;;;;;6.40;3.28;;;;;;;21.65;31.95;96984.44;5114741;28;20131;-62
2022/10/20 10:03:18;;;;;;;7.38;3.45;;;;;;;21.58;31.50;96992.03;5114674;28;20075;-62
2022/10/20 10:05:49;;;;;;;6.70;3.08;;;;;;;21.52;31.71;96988.03;5114792;28;20047;-59
2022/10/20 10:08:16;;;;;;;4.68;3.03;;;;;;;21.58;31.38;96994.69;5114981;28;20479;-63
2022/10/20 10:10:46;;;;;;;4.90;2.90;;;;;;;21.56;32.16;96992.19;5114628;28;20043;-66
2022/10/20 10:13:25;;;;;;;3.72;3.05;;;;;;;21.58;32.25;96992.03;5114666;28;20122;-66
2022/10/20 10:16:02;;;;;;;4.80;3.40;;;;;;;21.60;32.00;96995.44;5113605;28;20051;-63
2022/10/20 10:18:31;;;;;;;3.45;3.05;;;;;;;21.35;31.50;96994.66;5114578;28;20051;-65
2022/10/20 10:21:03;;;;;;;3.92;3.00;;;;;;;21.12;32.23;96978.59;5114219;28;20052;-67
2022/10/20 10:23:32;;;;;;;3.28;2.80;;;;;;;21.09;32.73;96984.13;5114499;28;20085;-65
2022/10/20 10:26:00;;;;;;;5.00;3.10;;;;;;;21.16;31.71;96988.03;5114341;28;20048;-60
2022/10/20 10:28:40;;;;;;;3.70;2.90;;;;;;;21.06;32.52;96990.53;5114538;28;20116;-63
2022/10/20 10:31:20;;;;;;;3.55;2.85;;;;;;;21.11;32.41;96984.88;5114455;28;20039;-62
2022/10/20 10:33:51;;;;;;;4.57;3.05;;;;;;;21.08;32.15;96988.59;5114089;28;20059;-64
2022/10/20 10:36:30;;;;;;;2.95;2.75;;;;;;;21.14;31.64;96975.81;5114146;28;20075;-65
2022/10/20 10:38:58;;;;;;;5.10;2.80;;;;;;;20.96;31.28;96977.03;5113961;28;20044;-66
2022/10/20 10:41:37;;;;;;;3.15;2.60;;;;;;;20.81;31.42;96976.38;5113986;28;20039;-62
2022/10/20 10:44:14;;;;;;;2.90;2.58;;;;;;;20.47;32.79;96977.94;5114161;27;20079;-63
2022/10/20 10:46:49;;;;;;;4.07;3.22;;;;;;;20.55;33.05;96965.81;5113966;28;20051;-62
2022/10/20 10:49:33;;;;;;;3.58;3.05;;;;;;;20.57;32.97;96963.91;5113953;28;20053;-64
2022/10/20 10:52:14;;;;;;;3.00;2.70;;;;;;;20.53;33.19;96959.75;5113876;28;20047;-62
2022/10/20 10:54:57;;;;;;;4.15;2.83;;;;;;;20.52;33.05;96967.81;5113771;28;20051;-62
2022/10/20 10:57:31;;;;;;;3.15;2.85;;;;;;;20.57;31.69;96960.38;5113807;28;20093;-59
2022/10/20 11:00:02;;;;;;;3.10;2.40;;;;;;;20.65;32.02;96955.34;5113869;28;20051;-61
2022/10/20 11:03:09;;;;;;;2.60;2.38;;;;;;;20.76;31.13;96948.41;5113823;28;20054;-66
2022/10/20 11:06:14;;;;;;;3.03;2.50;;;;;;;20.78;31.03;96942.03;5031011;28;20057;-66
2022/10/20 11:09:08;;;;;;;5.13;2.67;;;;;;;20.85;31.67;96950.38;5031454;28;20258;-66
2022/10/20 11:11:47;;;;;;;3.97;2.92;;;;;;;20.70;32.14;96949.69;5108042;28;20112;-69
2022/10/20 11:14:23;;;;;;;3.20;2.60;;;;;;;20.46;30.91;96937.22;5113564;28;20120;-63
2022/10/20 11:16:58;;;;;;;4.45;3.08;;;;;;;20.54;31.57;96932.22;5113433;28;20059;-60
2022/10/20 11:19:50;;;;;;;3.55;2.53;;;;;;;20.64;31.23;96934.19;5113287;28;20079;-66
2022/10/20 11:22:30;;;;;;;6.15;2.90;;;;;;;20.39;31.21;96938.63;5113816;28;20097;-63
2022/10/20 11:25:08;;;;;;;3.25;2.58;;;;;;;20.17;33.25;96938.34;5113611;28;20055;-62
2022/10/20 11:27:37;;;;;;;4.50;3.08;;;;;;;20.15;32.69;96944.75;5117538;28;20043;-67
2022/10/20 11:30:15;;;;;;;3.90;2.60;;;;;;;20.00;32.27;96943.97;5117548;28;20442;-62
2022/10/20 11:32:47;;;;;;;7.35;2.75;;;;;;;19.79;32.47;96941.88;5117930;28;20410;-63
2022/10/20 11:35:22;;;;;;;3.22;2.78;;;;;;;19.85;32.58;96937.94;5117342;28;20052;-63
2022/10/20 11:37:57;;;;;;;3.58;2.50;;;;;;;19.85;32.31;96935.28;5117525;28;20071;-62
2022/10/20 11:40:30;;;;;;;3.20;2.78;;;;;;;19.90;32.53;96935.81;5117531;28;20524;-67
2022/10/20 11:43:11;;;;;;;4.05;2.95;;;;;;;20.04;32.68;96935.72;5117490;28;20056;-67
2022/10/20 11:45:42;;;;;;;;;;;;;;;20.07;33.04;96929.34;5118070;28;20051;-65
2022/10/20 11:48:17;;;;;;;3.25;2.95;;;;;;;20.01;32.63;96930.63;5117275;28;19926;-62
2022/10/20 11:50:56;;;;;;;3.85;3.03;;;;;;;19.89;32.88;96928.81;5117269;28;20043;-65